createdAt,value
2018-01-26T00:02:01.745Z,28.77
2018-01-26T00:04:29.154Z,16.50
2018-01-26T00:06:56.543Z,11.23
2018-01-26T00:09:23.965Z,12.00
2018-01-26T00:11:51.354Z,11.50
2018-01-26T00:14:18.758Z,14.33
2018-01-26T00:16:46.135Z,14.63
2018-01-26T00:19:13.558Z,16.20
2018-01-26T00:21:40.950Z,13.47
2018-01-26T00:24:08.346Z,14.70
2018-01-26T00:26:35.734Z,13.40
2018-01-26T00:29:03.131Z,12.93
2018-01-26T00:31:30.521Z,15.27
2018-01-26T00:33:57.926Z,17.87
2018-01-26T00:36:25.408Z,15.70
2018-01-26T00:38:52.857Z,14.00
2018-01-26T00:41:20.255Z,15.73
2018-01-26T00:43:47.647Z,16.83
2018-01-26T00:46:15.044Z,14.63
2018-01-26T00:48:42.443Z,16.57
2018-01-26T00:51:10.082Z,13.63
2018-01-26T00:53:37.544Z,11.93
2018-01-26T00:56:04.957Z,16.53
2018-01-26T00:58:32.361Z,15.77
2018-01-26T01:00:59.769Z,11.97
2018-01-26T01:03:27.226Z,21.17
2018-01-26T01:05:54.627Z,21.37
2018-01-26T01:08:22.021Z,22.87
2018-01-26T01:10:49.522Z,15.87
2018-01-26T01:13:16.921Z,11.50
2018-01-26T01:15:44.340Z,16.20
2018-01-26T01:18:11.715Z,26.77
2018-01-26T01:20:39.112Z,14.93
2018-01-26T01:23:06.498Z,28.20
2018-01-26T01:25:33.909Z,25.30
2018-01-26T01:28:01.318Z,23.60
2018-01-26T01:30:28.761Z,12.37
2018-01-26T01:32:56.156Z,14.40
2018-01-26T01:35:23.542Z,17.00
2018-01-26T01:37:50.940Z,15.37
2018-01-26T01:40:18.341Z,26.07
2018-01-26T01:42:45.842Z,18.27
2018-01-26T01:45:14.158Z,17.87
2018-01-26T01:47:41.567Z,21.43
2018-01-26T01:50:08.965Z,17.80
2018-01-26T01:52:36.354Z,19.70
2018-01-26T01:55:03.739Z,18.93
2018-01-26T01:57:31.194Z,26.03
2018-01-26T01:59:58.603Z,18.20
2018-01-26T02:02:26.006Z,18.43
2018-01-26T02:04:53.406Z,26.17
2018-01-26T02:07:20.816Z,21.57
2018-01-26T02:09:48.220Z,25.97
2018-01-26T02:12:15.654Z,21.83
2018-01-26T02:14:43.071Z,16.00
2018-01-26T02:17:10.486Z,22.20
2018-01-26T02:19:37.897Z,33.83
2018-01-26T02:22:05.310Z,22.60
2018-01-26T02:24:50.222Z,18.43
2018-01-26T02:27:17.622Z,30.50
2018-01-26T02:29:45.027Z,28.97
2018-01-26T02:32:12.446Z,30.30
2018-01-26T02:34:39.855Z,26.50
2018-01-26T02:37:07.264Z,34.10
2018-01-26T02:39:34.662Z,28.47
2018-01-26T02:42:02.109Z,30.07
2018-01-26T02:44:29.540Z,21.10
2018-01-26T02:46:56.948Z,25.97
2018-01-26T02:49:24.373Z,33.30
2018-01-26T02:51:51.742Z,26.67
2018-01-26T02:54:19.174Z,26.87
2018-01-26T02:56:46.583Z,30.57
2018-01-26T02:59:13.972Z,26.27
2018-01-26T03:01:41.375Z,35.37
2018-01-26T03:04:08.810Z,26.73
2018-01-26T03:06:36.194Z,31.63
2018-01-26T03:09:03.602Z,36.23
2018-01-26T03:11:31.012Z,36.00
2018-01-26T03:13:58.417Z,50.20
2018-01-26T03:16:25.803Z,42.50
2018-01-26T03:18:53.245Z,43.37
2018-01-26T03:21:20.644Z,37.23
2018-01-26T03:23:48.058Z,42.30
2018-01-26T03:26:15.454Z,50.10
2018-01-26T03:28:42.877Z,41.40
2018-01-26T03:31:10.262Z,42.50
2018-01-26T03:33:37.666Z,44.53
2018-01-26T03:36:05.082Z,54.03
2018-01-26T03:38:32.477Z,34.70
2018-01-26T03:40:59.882Z,51.43
2018-01-26T03:43:27.389Z,56.30
2018-01-26T03:45:54.783Z,52.30
2018-01-26T03:48:22.210Z,44.23
2018-01-26T03:50:49.614Z,48.50
2018-01-26T03:53:17.001Z,56.67
2018-01-26T03:55:44.409Z,57.70
2018-01-26T03:58:11.799Z,59.30
2018-01-26T04:00:39.214Z,55.47
2018-01-26T04:03:06.614Z,49.33
2018-01-26T04:05:34.022Z,49.80
2018-01-26T04:08:01.448Z,57.37
2018-01-26T04:10:28.842Z,41.47
2018-01-26T04:12:56.239Z,52.93
2018-01-26T04:15:23.635Z,46.80
2018-01-26T04:17:51.069Z,48.07
2018-01-26T04:20:18.487Z,42.30
2018-01-26T04:22:45.892Z,50.33
2018-01-26T04:25:13.284Z,58.13
2018-01-26T04:27:40.682Z,50.57
2018-01-26T04:30:08.074Z,39.50
2018-01-26T04:32:35.473Z,43.17
2018-01-26T04:35:02.980Z,61.57
2018-01-26T04:37:30.411Z,47.20
2018-01-26T04:39:57.805Z,53.90
2018-01-26T04:42:25.626Z,52.10
2018-01-26T04:44:53.023Z,40.17
2018-01-26T04:47:20.434Z,45.80
2018-01-26T04:49:47.895Z,50.43
2018-01-26T04:52:15.351Z,59.70
2018-01-26T04:54:42.694Z,65.07
2018-01-26T04:57:10.089Z,47.30
2018-01-26T04:59:37.507Z,54.90
2018-01-26T05:02:04.904Z,50.30
2018-01-26T05:04:32.333Z,56.20
2018-01-26T05:06:59.730Z,57.40
2018-01-26T05:09:27.130Z,46.77
2018-01-26T05:11:54.554Z,59.73
2018-01-26T05:14:21.969Z,68.67
2018-01-26T05:16:49.376Z,57.40
2018-01-26T05:19:16.821Z,57.23
2018-01-26T05:21:44.210Z,50.40
2018-01-26T05:24:11.629Z,73.33
2018-01-26T05:26:39.038Z,54.07
2018-01-26T05:29:06.551Z,57.00
2018-01-26T05:31:33.947Z,59.53
2018-01-26T05:34:01.345Z,57.83
2018-01-26T05:36:28.738Z,63.57
2018-01-26T05:38:56.152Z,51.73
2018-01-26T05:41:23.558Z,176.50
2018-01-26T05:43:50.990Z,67.90
2018-01-26T05:46:18.382Z,71.80
2018-01-26T05:48:45.796Z,70.27
2018-01-26T05:51:13.184Z,87.20
2018-01-26T05:53:40.581Z,72.03
2018-01-26T05:56:07.998Z,71.27
2018-01-26T05:58:35.489Z,111.23
2018-01-26T06:01:02.895Z,86.53
2018-01-26T06:03:30.293Z,92.13
2018-01-26T06:05:57.689Z,84.57
2018-01-26T06:08:25.082Z,75.93
2018-01-26T06:10:52.487Z,83.73
2018-01-26T06:13:19.878Z,83.20
2018-01-26T06:15:47.282Z,50.70
2018-01-26T06:18:14.694Z,55.33
2018-01-26T06:20:42.222Z,79.70
2018-01-26T06:23:09.621Z,71.73
2018-01-26T06:25:37.022Z,72.40
2018-01-26T06:28:04.418Z,76.73
2018-01-26T06:30:32.678Z,63.63
2018-01-26T06:33:00.084Z,70.70
2018-01-26T06:35:27.510Z,72.17
2018-01-26T06:37:54.238Z,61.23
2018-01-26T06:40:21.655Z,58.20
2018-01-26T06:42:49.067Z,48.80
2018-01-26T06:45:16.478Z,55.87
2018-01-26T06:47:43.945Z,53.70
2018-01-26T06:50:11.391Z,53.57
2018-01-26T06:52:38.798Z,51.77
2018-01-26T06:55:06.190Z,50.93
2018-01-26T06:57:33.594Z,65.63
2018-01-26T07:00:01.011Z,53.57
2018-01-26T07:02:28.414Z,69.33
2018-01-26T07:04:55.809Z,68.73
2018-01-26T07:07:23.211Z,62.87
2018-01-26T07:09:50.622Z,51.33
2018-01-26T07:12:18.026Z,147.67
2018-01-26T07:14:45.422Z,53.60
2018-01-26T07:17:12.826Z,59.17
2018-01-26T07:19:40.233Z,66.77
2018-01-26T07:22:07.634Z,253.80
2018-01-26T07:24:35.022Z,76.90
2018-01-26T07:27:02.451Z,138.73
2018-01-26T07:29:29.846Z,46.87
2018-01-26T07:31:57.321Z,47.37
2018-01-26T07:34:24.717Z,58.00
2018-01-26T07:36:52.115Z,57.70
2018-01-26T07:39:19.593Z,74.13
2018-01-26T07:41:46.985Z,88.87
2018-01-26T07:44:14.387Z,76.53
2018-01-26T07:46:41.791Z,68.80
2018-01-26T07:49:09.199Z,95.80
2018-01-26T07:51:36.603Z,94.90
2018-01-26T07:54:04.020Z,163.27
2018-01-26T07:56:31.414Z,189.47
2018-01-26T07:58:58.822Z,194.83
2018-01-26T08:01:26.227Z,347.70
2018-01-26T08:03:53.666Z,323.20
2018-01-26T08:06:21.062Z,487.53
2018-01-26T08:08:48.513Z,729.67
2018-01-26T08:11:15.906Z,668.93
2018-01-26T08:13:43.323Z,611.67
2018-01-26T08:16:10.714Z,526.67
2018-01-26T08:18:38.152Z,568.13
2018-01-26T08:21:05.635Z,607.73
2018-01-26T08:23:33.065Z,495.53
2018-01-26T08:26:00.462Z,633.67
2018-01-26T08:28:27.867Z,667.93
2018-01-26T08:30:55.283Z,668.20
2018-01-26T08:33:22.686Z,727.13
2018-01-26T08:35:50.614Z,539.13
2018-01-26T08:38:18.030Z,454.17
2018-01-26T08:40:45.425Z,410.87
2018-01-26T08:43:12.845Z,330.10
2018-01-26T08:45:40.240Z,122.13
2018-01-26T08:48:07.650Z,199.73
2018-01-26T08:50:35.060Z,94.57
2018-01-26T08:53:02.458Z,85.80
2018-01-26T08:55:32.334Z,78.70
2018-01-26T08:57:59.741Z,97.43
2018-01-26T09:00:27.170Z,81.47
2018-01-26T09:02:54.562Z,88.53
2018-01-26T09:05:21.978Z,88.67
2018-01-26T09:07:49.383Z,86.37
2018-01-26T09:10:16.782Z,74.23
2018-01-26T09:12:44.174Z,83.50
2018-01-26T09:15:11.589Z,83.20
2018-01-26T09:17:38.983Z,79.50
2018-01-26T09:20:06.400Z,71.47
2018-01-26T09:22:33.804Z,60.70
2018-01-26T09:25:01.191Z,72.97
2018-01-26T09:27:28.622Z,67.90
2018-01-26T09:29:55.998Z,68.63
2018-01-26T09:32:23.407Z,69.67
2018-01-26T09:34:50.818Z,71.90
2018-01-26T09:37:18.231Z,73.33
2018-01-26T09:39:46.601Z,94.97
2018-01-26T09:42:14.007Z,88.13
2018-01-26T09:44:41.407Z,96.27
2018-01-26T09:47:08.987Z,80.47
2018-01-26T09:49:36.374Z,76.17
2018-01-26T09:52:03.847Z,81.70
2018-01-26T09:54:31.242Z,87.70
2018-01-26T09:56:58.664Z,81.20
2018-01-26T09:59:26.167Z,94.77
2018-01-26T10:01:53.610Z,87.37
2018-01-26T10:04:21.020Z,97.93
2018-01-26T10:06:48.421Z,92.83
2018-01-26T10:09:15.819Z,88.77
2018-01-26T10:11:43.339Z,100.17
2018-01-26T10:14:10.800Z,92.00
2018-01-26T10:16:38.178Z,98.53
2018-01-26T10:19:05.589Z,101.70
2018-01-26T10:21:33.054Z,89.70
2018-01-26T10:24:00.510Z,90.90
2018-01-26T10:26:27.911Z,91.73
2018-01-26T10:28:55.305Z,90.33
2018-01-26T10:31:23.230Z,82.65
2018-01-26T10:33:50.630Z,82.77
2018-01-26T10:36:18.026Z,103.50
2018-01-26T10:38:45.461Z,87.37
2018-01-26T10:41:12.839Z,93.50
2018-01-26T10:43:40.286Z,89.20
2018-01-26T10:46:07.726Z,81.40
2018-01-26T10:48:35.150Z,85.93
2018-01-26T10:51:02.550Z,90.77
2018-01-26T10:53:29.966Z,93.83
2018-01-26T10:55:57.469Z,100.10
2018-01-26T10:58:24.875Z,108.47
2018-01-26T11:00:52.269Z,117.57
2018-01-26T11:03:19.697Z,109.17
2018-01-26T11:05:47.107Z,115.40
2018-01-26T11:08:14.526Z,84.07
2018-01-26T11:10:41.932Z,75.13
2018-01-26T11:13:09.327Z,74.83
2018-01-26T11:15:36.731Z,89.97
2018-01-26T11:18:04.126Z,73.80
2018-01-26T11:20:31.627Z,84.37
2018-01-26T11:22:59.039Z,75.30
2018-01-26T11:25:26.454Z,80.07
2018-01-26T11:27:53.854Z,85.00
2018-01-26T11:30:21.291Z,82.07
2018-01-26T11:32:48.691Z,84.30
2018-01-26T11:35:16.087Z,81.90
2018-01-26T11:37:43.487Z,78.77
2018-01-26T11:40:10.959Z,81.27
2018-01-26T11:42:38.360Z,80.57
2018-01-26T11:45:05.759Z,86.03
2018-01-26T11:47:33.215Z,75.23
2018-01-26T11:50:00.627Z,65.23
2018-01-26T11:52:28.014Z,68.57
2018-01-26T11:54:55.484Z,62.90
2018-01-26T11:57:22.913Z,69.23
2018-01-26T11:59:50.294Z,75.53
2018-01-26T12:02:17.718Z,79.67
2018-01-26T12:04:45.132Z,66.47
2018-01-26T12:07:12.553Z,71.50
2018-01-26T12:09:39.949Z,78.47
2018-01-26T12:12:07.358Z,66.37
2018-01-26T12:14:34.753Z,73.67
2018-01-26T12:17:02.166Z,71.33
2018-01-26T12:19:29.566Z,66.90
2018-01-26T12:21:56.976Z,77.40
2018-01-26T12:24:24.372Z,68.70
2018-01-26T12:26:51.829Z,72.73
2018-01-26T12:29:19.293Z,75.03
2018-01-26T12:31:46.666Z,76.73
2018-01-26T12:34:14.099Z,68.07
2018-01-26T12:36:41.598Z,61.47
2018-01-26T12:39:08.911Z,65.70
2018-01-26T12:41:36.306Z,68.13
2018-01-26T12:44:03.716Z,87.50
2018-01-26T12:46:31.101Z,75.77
2018-01-26T12:48:58.570Z,80.07
2018-01-26T12:51:25.966Z,77.27
2018-01-26T12:53:53.373Z,76.20
2018-01-26T12:56:20.779Z,73.23
2018-01-26T12:58:48.179Z,76.63
2018-01-26T13:01:15.658Z,61.60
2018-01-26T13:03:44.011Z,76.67
2018-01-26T13:06:11.852Z,68.23
2018-01-26T13:08:39.259Z,70.97
2018-01-26T13:11:06.656Z,79.47
2018-01-26T13:13:34.079Z,73.17
2018-01-26T13:16:01.454Z,69.07
2018-01-26T13:18:28.906Z,73.10
2018-01-26T13:20:56.361Z,65.57
2018-01-26T13:23:23.771Z,59.70
2018-01-26T13:25:51.162Z,66.67
2018-01-26T13:28:18.634Z,73.27
2018-01-26T13:30:46.071Z,61.17
2018-01-26T13:33:13.484Z,70.13
2018-01-26T13:35:40.876Z,68.13
2018-01-26T13:38:08.286Z,65.50
2018-01-26T13:40:35.709Z,69.37
2018-01-26T13:43:03.133Z,60.23
2018-01-26T13:45:30.562Z,77.37
2018-01-26T13:47:58.041Z,73.17
2018-01-26T13:50:25.426Z,77.33
2018-01-26T13:52:52.863Z,71.43
2018-01-26T13:55:20.275Z,64.10
2018-01-26T13:57:47.670Z,61.07
2018-01-26T14:00:15.091Z,64.83
2018-01-26T14:02:42.514Z,61.93
2018-01-26T14:05:09.922Z,57.80
2018-01-26T14:07:37.319Z,66.03
2018-01-26T14:10:04.722Z,63.97
2018-01-26T14:12:32.203Z,68.87
2018-01-26T14:14:59.605Z,81.97
2018-01-26T14:17:27.018Z,67.50
2018-01-26T14:19:54.421Z,66.67
2018-01-26T14:22:21.933Z,70.23
2018-01-26T14:24:49.346Z,72.73
2018-01-26T14:27:16.746Z,63.00
2018-01-26T14:29:44.150Z,76.83
2018-01-26T14:32:11.559Z,69.40
2018-01-26T14:34:38.957Z,59.23
2018-01-26T14:37:06.358Z,55.40
2018-01-26T14:39:33.790Z,61.40
2018-01-26T14:42:01.185Z,67.40
2018-01-26T14:44:28.615Z,57.63
2018-01-26T14:46:56.135Z,76.40
2018-01-26T14:49:23.523Z,71.27
2018-01-26T14:51:50.940Z,67.93
2018-01-26T14:54:18.333Z,76.80
2018-01-26T14:56:45.746Z,71.00
2018-01-26T14:59:13.202Z,67.23
2018-01-26T15:01:40.606Z,67.17
2018-01-26T15:04:08.039Z,59.70
2018-01-26T15:06:35.457Z,53.67
2018-01-26T15:09:02.855Z,64.43
2018-01-26T15:11:30.263Z,62.03
2018-01-26T15:13:57.658Z,59.83
2018-01-26T15:16:25.063Z,66.27
2018-01-26T15:18:52.458Z,74.73
2018-01-26T15:21:19.850Z,68.13
2018-01-26T15:23:47.282Z,69.07
2018-01-26T15:26:14.746Z,71.13
2018-01-26T15:28:42.149Z,65.50
2018-01-26T15:31:09.631Z,76.30
2018-01-26T15:33:37.036Z,79.83
2018-01-26T15:36:04.427Z,66.37
2018-01-26T15:38:31.839Z,70.10
2018-01-26T15:40:59.235Z,66.13
2018-01-26T15:43:26.634Z,75.90
2018-01-26T15:45:54.071Z,74.13
2018-01-26T15:48:21.432Z,67.03
2018-01-26T15:50:48.849Z,66.17
2018-01-26T15:53:16.296Z,69.67
2018-01-26T15:55:43.672Z,54.57
2018-01-26T15:58:11.134Z,67.70
2018-01-26T16:00:38.531Z,65.10
2018-01-26T16:03:05.933Z,68.73
2018-01-26T16:05:33.338Z,72.23
2018-01-26T16:08:00.752Z,74.23
2018-01-26T16:10:28.142Z,87.40
2018-01-26T16:12:55.574Z,85.00
2018-01-26T16:15:22.967Z,65.37
2018-01-26T16:17:50.370Z,69.07
2018-01-26T16:20:17.826Z,61.57
2018-01-26T16:22:45.222Z,67.63
2018-01-26T16:25:12.622Z,62.47
2018-01-26T16:27:40.031Z,52.30
2018-01-26T16:30:07.452Z,71.57
2018-01-26T16:32:34.862Z,61.17
2018-01-26T16:35:02.262Z,76.73
2018-01-26T16:37:29.678Z,60.37
2018-01-26T16:39:57.081Z,57.57
2018-01-26T16:42:24.467Z,72.80
2018-01-26T16:44:51.875Z,56.87
2018-01-26T16:47:19.287Z,84.33
2018-01-26T16:49:46.715Z,70.23
2018-01-26T16:52:14.206Z,67.80
2018-01-26T16:54:41.634Z,64.33
2018-01-26T16:57:09.009Z,59.20
2018-01-26T16:59:36.436Z,79.93
2018-01-26T17:02:03.841Z,61.67
2018-01-26T17:04:31.234Z,60.10
2018-01-26T17:06:58.756Z,58.90
2018-01-26T17:09:26.198Z,64.30
2018-01-26T17:11:53.590Z,64.60
2018-01-26T17:14:20.995Z,66.87
2018-01-26T17:16:48.417Z,76.20
2018-01-26T17:19:15.805Z,74.83
2018-01-26T17:21:43.232Z,71.93
2018-01-26T17:24:10.625Z,73.10
2018-01-26T17:26:38.018Z,60.30
2018-01-26T17:29:05.426Z,62.67
2018-01-26T17:31:32.817Z,67.97
2018-01-26T17:34:00.222Z,65.30
2018-01-26T17:36:27.622Z,66.10
2018-01-26T17:38:55.063Z,67.30
2018-01-26T17:41:22.443Z,62.93
2018-01-26T17:43:49.871Z,71.20
2018-01-26T17:46:17.271Z,70.03
2018-01-26T17:48:44.661Z,58.37
2018-01-26T17:51:12.063Z,66.10
2018-01-26T17:53:39.465Z,73.67
2018-01-26T17:56:06.885Z,71.37
2018-01-26T17:58:34.283Z,74.00
2018-01-26T18:01:01.681Z,64.97
2018-01-26T18:03:29.095Z,73.20
2018-01-26T18:05:56.494Z,61.83
2018-01-26T18:08:23.883Z,81.43
2018-01-26T18:10:51.282Z,88.40
2018-01-26T18:13:24.658Z,96.40
2018-01-26T18:15:52.072Z,93.40
2018-01-26T18:18:19.551Z,96.33
2018-01-26T18:20:47.982Z,96.60
2018-01-26T18:23:15.379Z,83.90
2018-01-26T18:25:42.767Z,79.67
2018-01-26T18:28:10.171Z,80.50
2018-01-26T18:30:37.571Z,60.00
2018-01-26T18:33:04.970Z,53.37
2018-01-26T18:35:32.366Z,68.73
2018-01-26T18:37:59.801Z,71.47
2018-01-26T18:40:27.195Z,74.73
2018-01-26T18:42:54.602Z,73.53
2018-01-26T18:45:21.997Z,74.00
2018-01-26T18:47:49.402Z,74.00
2018-01-26T18:50:16.796Z,85.63
2018-01-26T18:52:44.199Z,86.23
2018-01-26T18:55:11.620Z,88.30
2018-01-26T18:57:39.016Z,73.03
2018-01-26T19:00:06.486Z,89.53
2018-01-26T19:02:33.908Z,81.20
2018-01-26T19:05:01.307Z,80.17
2018-01-26T19:07:28.718Z,89.67
2018-01-26T19:09:56.127Z,83.73
2018-01-26T19:12:23.539Z,94.83
2018-01-26T19:14:50.999Z,80.53
2018-01-26T19:17:18.410Z,73.90
2018-01-26T19:19:45.806Z,74.13
2018-01-26T19:22:13.267Z,61.77
2018-01-26T19:24:40.690Z,64.73
2018-01-26T19:27:08.116Z,88.27
2018-01-26T19:29:35.562Z,79.30
2018-01-26T19:32:03.069Z,90.53
2018-01-26T19:34:30.466Z,80.97
2018-01-26T19:36:57.859Z,82.03
2018-01-26T19:39:25.288Z,78.43
2018-01-26T19:41:52.690Z,74.53
2018-01-26T19:44:20.137Z,220.73
2018-01-26T19:46:47.716Z,181.73
2018-01-26T19:49:15.143Z,283.27
2018-01-26T19:51:42.527Z,154.87
2018-01-26T19:54:09.931Z,158.60
2018-01-26T19:56:37.330Z,125.20
2018-01-26T19:59:04.734Z,92.10
2018-01-26T20:01:32.186Z,89.07
2018-01-26T20:04:05.492Z,75.63
2018-01-26T20:06:50.346Z,74.97
2018-01-26T20:09:23.349Z,73.57
2018-01-26T20:11:56.355Z,67.90
2018-01-26T20:14:23.786Z,69.93
2018-01-26T20:16:51.201Z,74.23
2018-01-26T20:19:18.606Z,66.60
2018-01-26T20:21:46.007Z,65.60
2018-01-26T20:24:13.419Z,56.03
2018-01-26T20:26:40.890Z,117.03
2018-01-26T20:29:08.294Z,68.90
2018-01-26T20:31:35.697Z,54.07
2018-01-26T20:34:03.225Z,90.40
2018-01-26T20:36:30.664Z,76.97
2018-01-26T20:38:58.063Z,59.47
2018-01-26T20:41:25.537Z,66.57
2018-01-26T20:43:52.926Z,58.60
2018-01-26T20:46:20.323Z,60.53
2018-01-26T20:48:47.735Z,64.53
2018-01-26T20:51:15.163Z,89.90
2018-01-26T20:53:42.592Z,105.80
2018-01-26T20:56:09.966Z,57.67
2018-01-26T20:58:37.383Z,59.07
2018-01-26T21:01:04.922Z,75.90
2018-01-26T21:03:32.347Z,87.87
2018-01-26T21:05:59.758Z,66.40
2018-01-26T21:08:27.142Z,87.33
2018-01-26T21:13:34.550Z,65.67
2018-01-26T21:16:01.974Z,58.53
2018-01-26T21:18:29.377Z,57.73
2018-01-26T21:20:56.782Z,57.10
2018-01-26T21:23:24.179Z,55.53
2018-01-26T21:25:51.588Z,64.10
2018-01-26T21:28:19.003Z,57.37
2018-01-26T21:30:46.432Z,58.83
2018-01-26T21:33:13.847Z,67.23
2018-01-26T21:35:41.270Z,57.50
2018-01-26T21:38:08.778Z,67.97
2018-01-26T21:40:36.189Z,54.93
2018-01-26T21:43:03.582Z,59.70
2018-01-26T21:45:30.978Z,58.50
2018-01-26T21:47:58.378Z,55.80
2018-01-26T21:50:25.791Z,61.57
2018-01-26T21:52:53.195Z,63.60
2018-01-26T21:55:20.586Z,65.43
2018-01-26T21:57:48.085Z,62.20
2018-01-26T22:00:15.490Z,69.73
2018-01-26T22:02:42.886Z,61.50
2018-01-26T22:05:16.120Z,62.70
2018-01-26T22:07:43.526Z,76.13
2018-01-26T22:10:10.923Z,68.53
2018-01-26T22:12:38.322Z,67.13
2018-01-26T22:15:05.719Z,68.17
2018-01-26T22:17:33.120Z,52.63
2018-01-26T22:20:00.505Z,47.57
2018-01-26T22:22:27.917Z,78.97
2018-01-26T22:24:55.314Z,57.50
2018-01-26T22:27:22.711Z,65.67
2018-01-26T22:29:50.140Z,49.23
2018-01-26T22:32:18.426Z,59.13
2018-01-26T22:34:45.820Z,58.67
2018-01-26T22:37:13.230Z,63.67
2018-01-26T22:39:40.718Z,60.70
2018-01-26T22:42:08.126Z,71.37
2018-01-26T22:44:35.506Z,59.80
2018-01-26T22:47:02.991Z,54.47
2018-01-26T22:49:30.374Z,58.03
2018-01-26T22:51:57.786Z,60.13
2018-01-26T22:54:25.178Z,57.57
2018-01-26T22:56:52.601Z,56.50
2018-01-26T22:59:20.010Z,60.43
2018-01-26T23:01:47.402Z,48.60
2018-01-26T23:04:14.810Z,69.27
2018-01-26T23:06:42.214Z,57.37
2018-01-26T23:09:09.633Z,54.13
2018-01-26T23:11:37.017Z,58.20
2018-01-26T23:14:04.425Z,56.33
2018-01-26T23:16:31.819Z,63.17
2018-01-26T23:18:59.234Z,56.67
2018-01-26T23:21:26.614Z,45.10
2018-01-26T23:23:54.018Z,55.40
2018-01-26T23:26:21.424Z,50.43
2018-01-26T23:28:48.856Z,58.93
2018-01-26T23:31:16.286Z,51.97
2018-01-26T23:33:43.695Z,60.33
2018-01-26T23:36:11.099Z,53.67
2018-01-26T23:38:38.494Z,52.13
2018-01-26T23:41:05.890Z,47.30
2018-01-26T23:43:33.299Z,55.63
2018-01-26T23:46:00.694Z,50.73
2018-01-26T23:48:28.098Z,72.03
2018-01-26T23:50:55.498Z,51.70
2018-01-26T23:53:22.902Z,54.67
2018-01-26T23:55:50.295Z,61.20
2018-01-26T23:58:17.707Z,61.37
